Butler, Oklahoma
Current Conditions -  °F | °C
As of 3:55 AM on Saturday 29 Nov 2014 (Local Time) from KCLK Reporting Station
Clear Clear  
Wind Chill: 38°   Ceiling: Unl
Heat Index: 45°   Visibility: 10mi
Dew Point: 32°   Wind: 14mph
Humidity: 61%   Direction: 170°S
Pressure: 29.75"   Gusts: NA
Location:  35.64°N, 99.19°W
Report Text: KCLK 290955Z AUTO 17012KT 10SM CLR 07/00 A2975 RMK AO2
Loading
Personal Weather Stations






























Interactive Weather Map New forecast layout! Learn more

10-Day Weather Forecast

Advertisements
Track Severe Weather on mobile